sensor_id;sensor_type;location;lat;lon;timestamp;pressure;altitude;pressure_sealevel;temperature;humidity
55685;BME280;41883;49.544;8.646;2023-03-04T00:00:16;101259.75;;;-0.88;nan
55685;BME280;41883;49.544;8.646;2023-03-04T00:02:42;101256.44;;;-0.93;nan
55685;BME280;41883;49.544;8.646;2023-03-04T00:05:07;101260.94;;;-0.97;nan
55685;BME280;41883;49.544;8.646;2023-03-04T00:07:32;101262.13;;;-1.05;nan
55685;BME280;41883;49.544;8.646;2023-03-04T00:09:58;101266.78;;;-1.14;nan
55685;BME280;41883;49.544;8.646;2023-03-04T00:12:23;101267.97;;;-1.22;nan
55685;BME280;41883;49.544;8.646;2023-03-04T00:14:48;101263.91;;;-1.30;nan
55685;BME280;41883;49.544;8.646;2023-03-04T00:17:13;101270.22;;;-1.37;nan
55685;BME280;41883;49.544;8.646;2023-03-04T00:19:39;101271.19;;;-1.39;nan
55685;BME280;41883;49.544;8.646;2023-03-04T00:22:04;101271.38;;;-1.44;nan
55685;BME280;41883;49.544;8.646;2023-03-04T00:24:29;101270.66;;;-1.47;nan
55685;BME280;41883;49.544;8.646;2023-03-04T00:26:55;101281.06;;;-1.49;nan
55685;BME280;41883;49.544;8.646;2023-03-04T00:29:20;101272.31;;;-1.46;nan
55685;BME280;41883;49.544;8.646;2023-03-04T00:31:46;101270.41;;;-1.41;nan
55685;BME280;41883;49.544;8.646;2023-03-04T00:34:11;101271.25;;;-1.41;nan
55685;BME280;41883;49.544;8.646;2023-03-04T00:36:36;101271.19;;;-1.39;nan
55685;BME280;41883;49.544;8.646;2023-03-04T00:39:01;101273.66;;;-1.36;nan
55685;BME280;41883;49.544;8.646;2023-03-04T00:41:26;101277.06;;;-1.34;nan
55685;BME280;41883;49.544;8.646;2023-03-04T00:43:52;101284.91;;;-1.36;nan
55685;BME280;41883;49.544;8.646;2023-03-04T00:46:17;101280.66;;;-1.38;nan
55685;BME280;41883;49.544;8.646;2023-03-04T00:48:42;101280.78;;;-1.41;nan
55685;BME280;41883;49.544;8.646;2023-03-04T00:51:07;101283.31;;;-1.40;nan
55685;BME280;41883;49.544;8.646;2023-03-04T00:53:33;101285.13;;;-1.42;nan
55685;BME280;41883;49.544;8.646;2023-03-04T00:55:58;101288.72;;;-1.46;nan
55685;BME280;41883;49.544;8.646;2023-03-04T00:58:23;101280.91;;;-1.44;nan
55685;BME280;41883;49.544;8.646;2023-03-04T01:00:48;101293.13;;;-1.48;nan
55685;BME280;41883;49.544;8.646;2023-03-04T01:03:13;101279.44;;;-1.52;nan
55685;BME280;41883;49.544;8.646;2023-03-04T01:05:39;101280.41;;;-1.54;nan
55685;BME280;41883;49.544;8.646;2023-03-04T01:08:04;101281.28;;;-1.55;nan
55685;BME280;41883;49.544;8.646;2023-03-04T01:10:30;101281.44;;;-1.60;nan
55685;BME280;41883;49.544;8.646;2023-03-04T01:12:56;101277.38;;;-1.67;nan
55685;BME280;41883;49.544;8.646;2023-03-04T01:15:21;101277.56;;;-1.72;nan
55685;BME280;41883;49.544;8.646;2023-03-04T01:17:47;101284.59;;;-1.75;nan
55685;BME280;41883;49.544;8.646;2023-03-04T01:20:12;101284.81;;;-1.81;nan
55685;BME280;41883;49.544;8.646;2023-03-04T01:22:37;101276.34;;;-1.86;nan
55685;BME280;41883;49.544;8.646;2023-03-04T01:25:03;101277.31;;;-1.89;nan
55685;BME280;41883;49.544;8.646;2023-03-04T01:27:28;101275.66;;;-1.92;nan
55685;BME280;41883;49.544;8.646;2023-03-04T01:29:53;101263.63;;;-1.93;nan
55685;BME280;41883;49.544;8.646;2023-03-04T01:32:18;101270.63;;;-1.96;nan
55685;BME280;41883;49.544;8.646;2023-03-04T01:34:43;101263.78;;;-1.97;nan
55685;BME280;41883;49.544;8.646;2023-03-04T01:37:09;101269.81;;;-1.97;nan
55685;BME280;41883;49.544;8.646;2023-03-04T01:39:34;101253.44;;;-1.99;nan
55685;BME280;41883;49.544;8.646;2023-03-04T01:41:59;101248.31;;;-2.00;nan
55685;BME280;41883;49.544;8.646;2023-03-04T01:44:24;101249.34;;;-2.04;nan
55685;BME280;41883;49.544;8.646;2023-03-04T01:46:56;101253.75;;;-2.08;nan
55685;BME280;41883;49.544;8.646;2023-03-04T01:49:21;101254.78;;;-2.12;nan
55685;BME280;41883;49.544;8.646;2023-03-04T01:51:48;101244.50;;;-2.15;nan
55685;BME280;41883;49.544;8.646;2023-03-04T01:54:14;101241.13;;;-2.17;nan
55685;BME280;41883;49.544;8.646;2023-03-04T01:56:39;101245.53;;;-2.19;nan
55685;BME280;41883;49.544;8.646;2023-03-04T01:59:05;101240.44;;;-2.22;nan
55685;BME280;41883;49.544;8.646;2023-03-04T02:01:31;101239.56;;;-2.21;nan
55685;BME280;41883;49.544;8.646;2023-03-04T02:03:56;101244.63;;;-2.18;nan
55685;BME280;41883;49.544;8.646;2023-03-04T02:06:21;101239.50;;;-2.20;nan
55685;BME280;41883;49.544;8.646;2023-03-04T02:08:47;101241.34;;;-2.23;nan
55685;BME280;41883;49.544;8.646;2023-03-04T02:11:12;101240.59;;;-2.27;nan
55685;BME280;41883;49.544;8.646;2023-03-04T02:13:38;101230.38;;;-2.31;nan
55685;BME280;41883;49.544;8.646;2023-03-04T02:16:09;101230.50;;;-2.35;nan
55685;BME280;41883;49.544;8.646;2023-03-04T02:18:36;101240.91;;;-2.36;nan
55685;BME280;41883;49.544;8.646;2023-03-04T02:21:06;101232.41;;;-2.40;nan
55685;BME280;41883;49.544;8.646;2023-03-04T02:23:54;101231.66;;;-2.43;nan
55685;BME280;41883;49.544;8.646;2023-03-04T02:26:31;101225.59;;;-2.42;nan
55685;BME280;41883;49.544;8.646;2023-03-04T02:29:02;101226.59;;;-2.46;nan
55685;BME280;41883;49.544;8.646;2023-03-04T02:31:35;101222.34;;;-2.49;nan
55685;BME280;41883;49.544;8.646;2023-03-04T02:34:02;101224.00;;;-2.46;nan
55685;BME280;41883;49.544;8.646;2023-03-04T02:36:28;101224.78;;;-2.44;nan
55685;BME280;41883;49.544;8.646;2023-03-04T02:38:54;101220.41;;;-2.42;nan
55685;BME280;41883;49.544;8.646;2023-03-04T02:41:24;101224.69;;;-2.41;nan
55685;BME280;41883;49.544;8.646;2023-03-04T02:43:51;101221.22;;;-2.40;nan
55685;BME280;41883;49.544;8.646;2023-03-04T02:46:19;101218.66;;;-2.42;nan
55685;BME280;41883;49.544;8.646;2023-03-04T02:48:44;101226.47;;;-2.43;nan
55685;BME280;41883;49.544;8.646;2023-03-04T02:51:09;101221.47;;;-2.48;nan
55685;BME280;41883;49.544;8.646;2023-03-04T02:53:35;101218.97;;;-2.51;nan
55685;BME280;41883;49.544;8.646;2023-03-04T02:56:00;101212.09;;;-2.52;nan
55685;BME280;41883;49.544;8.646;2023-03-04T02:58:25;101207.75;;;-2.51;nan
55685;BME280;41883;49.544;8.646;2023-03-04T03:00:50;101212.94;;;-2.51;nan
55685;BME280;41883;49.544;8.646;2023-03-04T03:03:16;101212.00;;;-2.49;nan
55685;BME280;41883;49.544;8.646;2023-03-04T03:05:41;101209.25;;;-2.44;nan
55685;BME280;41883;49.544;8.646;2023-03-04T03:08:06;101210.94;;;-2.43;nan
55685;BME280;41883;49.544;8.646;2023-03-04T03:10:34;101203.22;;;-2.45;nan
55685;BME280;41883;49.544;8.646;2023-03-04T03:13:00;101212.75;;;-2.45;nan
55685;BME280;41883;49.544;8.646;2023-03-04T03:15:25;101211.13;;;-2.48;nan
55685;BME280;41883;49.544;8.646;2023-03-04T03:17:50;101210.25;;;-2.48;nan
55685;BME280;41883;49.544;8.646;2023-03-04T03:20:15;101219.59;;;-2.44;nan
55685;BME280;41883;49.544;8.646;2023-03-04T03:22:41;101212.53;;;-2.39;nan
55685;BME280;41883;49.544;8.646;2023-03-04T03:25:07;101214.00;;;-2.32;nan
55685;BME280;41883;49.544;8.646;2023-03-04T03:27:32;101207.59;;;-2.22;nan
55685;BME280;41883;49.544;8.646;2023-03-04T03:29:57;101217.66;;;-2.13;nan
55685;BME280;41883;49.544;8.646;2023-03-04T03:32:23;101206.09;;;-2.02;nan
55685;BME280;41883;49.544;8.646;2023-03-04T03:34:48;101210.97;;;-1.95;nan
55685;BME280;41883;49.544;8.646;2023-03-04T03:37:13;101215.03;;;-1.87;nan
55685;BME280;41883;49.544;8.646;2023-03-04T03:39:39;101205.31;;;-1.81;nan
55685;BME280;41883;49.544;8.646;2023-03-04T03:42:04;101213.63;;;-1.73;nan
55685;BME280;41883;49.544;8.646;2023-03-04T03:44:29;101211.63;;;-1.64;nan
55685;BME280;41883;49.544;8.646;2023-03-04T03:46:54;101220.00;;;-1.58;nan
55685;BME280;41883;49.544;8.646;2023-03-04T03:49:20;101211.22;;;-1.54;nan
55685;BME280;41883;49.544;8.646;2023-03-04T03:51:45;101219.78;;;-1.52;nan
55685;BME280;41883;49.544;8.646;2023-03-04T03:54:10;101223.97;;;-1.47;nan
55685;BME280;41883;49.544;8.646;2023-03-04T03:56:35;101223.84;;;-1.44;nan
55685;BME280;41883;49.544;8.646;2023-03-04T03:59:01;101216.00;;;-1.43;nan
55685;BME280;41883;49.544;8.646;2023-03-04T04:01:26;101209.94;;;-1.43;nan
55685;BME280;41883;49.544;8.646;2023-03-04T04:03:51;101214.97;;;-1.39;nan
55685;BME280;41883;49.544;8.646;2023-03-04T04:06:17;101214.06;;;-1.38;nan
55685;BME280;41883;49.544;8.646;2023-03-04T04:08:42;101218.97;;;-1.30;nan
55685;BME280;41883;49.544;8.646;2023-03-04T04:11:11;101211.91;;;-1.26;nan
55685;BME280;41883;49.544;8.646;2023-03-04T04:13:36;101217.81;;;-1.23;nan
55685;BME280;41883;49.544;8.646;2023-03-04T04:16:01;101206.63;;;-1.23;nan
55685;BME280;41883;49.544;8.646;2023-03-04T04:18:27;101203.41;;;-1.30;nan
55685;BME280;41883;49.544;8.646;2023-03-04T04:20:52;101202.59;;;-1.32;nan
55685;BME280;41883;49.544;8.646;2023-03-04T04:23:17;101200.31;;;-1.40;nan
55685;BME280;41883;49.544;8.646;2023-03-04T04:25:43;101198.25;;;-1.54;nan
55685;BME280;41883;49.544;8.646;2023-03-04T04:28:08;101206.59;;;-1.69;nan
55685;BME280;41883;49.544;8.646;2023-03-04T04:30:33;101205.34;;;-1.82;nan
55685;BME280;41883;49.544;8.646;2023-03-04T04:32:58;101203.88;;;-1.89;nan
55685;BME280;41883;49.544;8.646;2023-03-04T04:35:25;101206.81;;;-1.99;nan
55685;BME280;41883;49.544;8.646;2023-03-04T04:37:51;101207.88;;;-2.04;nan
55685;BME280;41883;49.544;8.646;2023-03-04T04:40:16;101212.38;;;-2.09;nan
55685;BME280;41883;49.544;8.646;2023-03-04T04:42:41;101210.84;;;-2.15;nan
55685;BME280;41883;49.544;8.646;2023-03-04T04:45:06;101211.91;;;-2.21;nan
55685;BME280;41883;49.544;8.646;2023-03-04T04:47:32;101216.09;;;-2.17;nan
55685;BME280;41883;49.544;8.646;2023-03-04T04:49:57;101221.94;;;-2.11;nan
55685;BME280;41883;49.544;8.646;2023-03-04T04:52:22;101214.84;;;-2.06;nan
55685;BME280;41883;49.544;8.646;2023-03-04T04:54:47;101206.81;;;-1.99;nan
55685;BME280;41883;49.544;8.646;2023-03-04T04:57:13;101210.81;;;-1.90;nan
55685;BME280;41883;49.544;8.646;2023-03-04T04:59:38;101210.59;;;-1.84;nan
55685;BME280;41883;49.544;8.646;2023-03-04T05:02:03;101210.53;;;-1.82;nan
55685;BME280;41883;49.544;8.646;2023-03-04T05:04:28;101218.19;;;-1.79;nan
55685;BME280;41883;49.544;8.646;2023-03-04T05:06:53;101216.34;;;-1.76;nan
55685;BME280;41883;49.544;8.646;2023-03-04T05:09:18;101220.47;;;-1.70;nan
55685;BME280;41883;49.544;8.646;2023-03-04T05:11:44;101221.19;;;-1.66;nan
55685;BME280;41883;49.544;8.646;2023-03-04T05:14:10;101224.34;;;-1.58;nan
55685;BME280;41883;49.544;8.646;2023-03-04T05:16:35;101216.44;;;-1.55;nan
55685;BME280;41883;49.544;8.646;2023-03-04T05:19:00;101222.50;;;-1.55;nan
55685;BME280;41883;49.544;8.646;2023-03-04T05:21:25;101217.06;;;-1.48;nan
55685;BME280;41883;49.544;8.646;2023-03-04T05:23:50;101224.72;;;-1.45;nan
55685;BME280;41883;49.544;8.646;2023-03-04T05:26:16;101210.81;;;-1.43;nan
55685;BME280;41883;49.544;8.646;2023-03-04T05:28:42;101221.78;;;-1.36;nan
55685;BME280;41883;49.544;8.646;2023-03-04T05:31:07;101220.09;;;-1.37;nan
55685;BME280;41883;49.544;8.646;2023-03-04T05:33:33;101222.56;;;-1.34;nan
55685;BME280;41883;49.544;8.646;2023-03-04T05:35:58;101218.78;;;-1.25;nan
55685;BME280;41883;49.544;8.646;2023-03-04T05:38:24;101222.88;;;-1.20;nan
55685;BME280;41883;49.544;8.646;2023-03-04T05:40:54;101218.25;;;-1.12;nan
55685;BME280;41883;49.544;8.646;2023-03-04T05:43:19;101213.72;;;-1.07;nan
55685;BME280;41883;49.544;8.646;2023-03-04T05:45:45;101215.31;;;-1.02;nan
55685;BME280;41883;49.544;8.646;2023-03-04T05:48:12;101209.06;;;-0.98;nan
55685;BME280;41883;49.544;8.646;2023-03-04T05:50:38;101206.38;;;-0.95;nan
55685;BME280;41883;49.544;8.646;2023-03-04T05:53:03;101207.13;;;-0.93;nan
55685;BME280;41883;49.544;8.646;2023-03-04T05:55:28;101211.44;;;-0.92;nan
55685;BME280;41883;49.544;8.646;2023-03-04T05:57:54;101213.91;;;-0.89;nan
55685;BME280;41883;49.544;8.646;2023-03-04T06:00:19;101222.53;;;-0.89;nan
55685;BME280;41883;49.544;8.646;2023-03-04T06:02:44;101211.91;;;-0.82;nan
55685;BME280;41883;49.544;8.646;2023-03-04T06:05:10;101218.59;;;-0.77;nan
55685;BME280;41883;49.544;8.646;2023-03-04T06:07:36;101221.28;;;-0.78;nan
55685;BME280;41883;49.544;8.646;2023-03-04T06:10:01;101229.72;;;-0.73;nan
55685;BME280;41883;49.544;8.646;2023-03-04T06:12:26;101229.44;;;-0.67;nan
55685;BME280;41883;49.544;8.646;2023-03-04T06:14:52;101233.63;;;-0.63;nan
55685;BME280;41883;49.544;8.646;2023-03-04T06:17:18;101233.38;;;-0.57;nan
55685;BME280;41883;49.544;8.646;2023-03-04T06:19:43;101240.84;;;-0.49;nan
55685;BME280;41883;49.544;8.646;2023-03-04T06:22:08;101240.72;;;-0.46;nan
55685;BME280;41883;49.544;8.646;2023-03-04T06:24:34;101245.41;;;-0.54;nan
55685;BME280;41883;49.544;8.646;2023-03-04T06:26:59;101242.34;;;-0.44;nan
55685;BME280;41883;49.544;8.646;2023-03-04T06:29:24;101247.53;;;-0.44;nan
55685;BME280;41883;49.544;8.646;2023-03-04T06:31:50;101252.88;;;-0.47;nan
55685;BME280;41883;49.544;8.646;2023-03-04T06:34:15;101251.84;;;-0.43;nan
55685;BME280;41883;49.544;8.646;2023-03-04T06:36:40;101255.75;;;-0.32;nan
55685;BME280;41883;49.544;8.646;2023-03-04T06:39:05;101253.59;;;-0.23;nan
55685;BME280;41883;49.544;8.646;2023-03-04T06:41:31;101253.22;;;-0.13;nan
55685;BME280;41883;49.544;8.646;2023-03-04T06:43:56;101258.22;;;-0.09;nan
55685;BME280;41883;49.544;8.646;2023-03-04T06:46:22;101256.22;;;-0.02;nan
55685;BME280;41883;49.544;8.646;2023-03-04T06:48:47;101255.91;;;0.04;nan
55685;BME280;41883;49.544;8.646;2023-03-04T06:51:12;101255.91;;;0.04;nan
55685;BME280;41883;49.544;8.646;2023-03-04T06:53:38;101261.75;;;0.09;nan
55685;BME280;41883;49.544;8.646;2023-03-04T06:56:04;101265.97;;;0.12;nan
55685;BME280;41883;49.544;8.646;2023-03-04T06:58:29;101267.63;;;0.14;nan
55685;BME280;41883;49.544;8.646;2023-03-04T07:00:54;101269.13;;;0.20;nan
55685;BME280;41883;49.544;8.646;2023-03-04T07:03:19;101270.59;;;0.26;nan
55685;BME280;41883;49.544;8.646;2023-03-04T07:05:45;101267.78;;;0.30;nan
55685;BME280;41883;49.544;8.646;2023-03-04T07:08:10;101274.56;;;0.34;nan
55685;BME280;41883;49.544;8.646;2023-03-04T07:10:35;101270.34;;;0.32;nan
55685;BME280;41883;49.544;8.646;2023-03-04T07:13:00;101272.75;;;0.36;nan
55685;BME280;41883;49.544;8.646;2023-03-04T07:15:26;101288.16;;;0.41;nan
55685;BME280;41883;49.544;8.646;2023-03-04T07:17:51;101274.16;;;0.44;nan
55685;BME280;41883;49.544;8.646;2023-03-04T07:20:16;101283.44;;;0.49;nan
55685;BME280;41883;49.544;8.646;2023-03-04T07:22:42;101284.00;;;0.56;nan
55685;BME280;41883;49.544;8.646;2023-03-04T07:25:07;101285.63;;;0.58;nan
55685;BME280;41883;49.544;8.646;2023-03-04T07:27:33;101287.19;;;0.62;nan
55685;BME280;41883;49.544;8.646;2023-03-04T07:29:58;101285.16;;;0.69;nan
55685;BME280;41883;49.544;8.646;2023-03-04T07:32:23;101293.84;;;0.68;nan
55685;BME280;41883;49.544;8.646;2023-03-04T07:34:48;101296.41;;;0.70;nan
55685;BME280;41883;49.544;8.646;2023-03-04T07:37:14;101298.91;;;0.71;nan
55685;BME280;41883;49.544;8.646;2023-03-04T07:39:39;101303.13;;;0.74;nan
55685;BME280;41883;49.544;8.646;2023-03-04T07:42:04;101297.81;;;0.77;nan
55685;BME280;41883;49.544;8.646;2023-03-04T07:44:32;101305.28;;;0.84;nan
55685;BME280;41883;49.544;8.646;2023-03-04T07:46:57;101309.53;;;0.85;nan
55685;BME280;41883;49.544;8.646;2023-03-04T07:49:22;101311.09;;;0.90;nan
55685;BME280;41883;49.544;8.646;2023-03-04T07:51:47;101306.69;;;0.92;nan
55685;BME280;41883;49.544;8.646;2023-03-04T07:54:13;101308.16;;;0.97;nan
55685;BME280;41883;49.544;8.646;2023-03-04T07:56:38;101315.06;;;0.98;nan
55685;BME280;41883;49.544;8.646;2023-03-04T07:59:03;101312.25;;;1.03;nan
55685;BME280;41883;49.544;8.646;2023-03-04T08:01:30;101313.03;;;1.05;nan
55685;BME280;41883;49.544;8.646;2023-03-04T08:03:56;101316.59;;;1.02;nan
55685;BME280;41883;49.544;8.646;2023-03-04T08:06:21;101310.31;;;1.06;nan
55685;BME280;41883;49.544;8.646;2023-03-04T08:08:47;101304.75;;;1.14;nan
55685;BME280;41883;49.544;8.646;2023-03-04T08:11:16;101306.34;;;1.17;nan
55685;BME280;41883;49.544;8.646;2023-03-04T08:13:41;101316.50;;;1.23;nan
55685;BME280;41883;49.544;8.646;2023-03-04T08:16:06;101315.50;;;1.25;nan
55685;BME280;41883;49.544;8.646;2023-03-04T08:18:32;101319.63;;;1.31;nan
55685;BME280;41883;49.544;8.646;2023-03-04T08:20:57;101314.41;;;1.31;nan
55685;BME280;41883;49.544;8.646;2023-03-04T08:23:23;101317.91;;;1.30;nan
55685;BME280;41883;49.544;8.646;2023-03-04T08:25:48;101310.81;;;1.34;nan
55685;BME280;41883;49.544;8.646;2023-03-04T08:28:13;101319.25;;;1.39;nan
55685;BME280;41883;49.544;8.646;2023-03-04T08:30:39;101321.53;;;1.45;nan
55685;BME280;41883;49.544;8.646;2023-03-04T08:33:05;101325.69;;;1.49;nan
55685;BME280;41883;49.544;8.646;2023-03-04T08:35:30;101317.81;;;1.51;nan
55685;BME280;41883;49.544;8.646;2023-03-04T08:37:56;101321.25;;;1.51;nan
55685;BME280;41883;49.544;8.646;2023-03-04T08:40:21;101324.31;;;1.59;nan
55685;BME280;41883;49.544;8.646;2023-03-04T08:42:46;101317.97;;;1.65;nan
55685;BME280;41883;49.544;8.646;2023-03-04T08:45:12;101315.84;;;1.73;nan
55685;BME280;41883;49.544;8.646;2023-03-04T08:47:37;101324.13;;;1.81;nan
55685;BME280;41883;49.544;8.646;2023-03-04T08:50:03;101317.75;;;1.87;nan
55685;BME280;41883;49.544;8.646;2023-03-04T08:52:29;101321.69;;;1.96;nan
55685;BME280;41883;49.544;8.646;2023-03-04T08:54:55;101318.75;;;2.02;nan
55685;BME280;41883;49.544;8.646;2023-03-04T08:57:20;101317.53;;;2.09;nan
55685;BME280;41883;49.544;8.646;2023-03-04T08:59:45;101311.63;;;2.05;nan
55685;BME280;41883;49.544;8.646;2023-03-04T09:02:13;101314.00;;;2.10;nan
55685;BME280;41883;49.544;8.646;2023-03-04T09:04:38;101321.50;;;2.16;nan
55685;BME280;41883;49.544;8.646;2023-03-04T09:07:03;101317.75;;;2.22;nan
55685;BME280;41883;49.544;8.646;2023-03-04T09:09:29;101319.50;;;2.21;nan
55685;BME280;41883;49.544;8.646;2023-03-04T09:11:55;101319.97;;;2.29;nan
55685;BME280;41883;49.544;8.646;2023-03-04T09:14:23;101322.72;;;2.44;nan
55685;BME280;41883;49.544;8.646;2023-03-04T09:16:48;101314.47;;;2.51;nan
55685;BME280;41883;49.544;8.646;2023-03-04T09:19:13;101317.69;;;2.57;nan
55685;BME280;41883;49.544;8.646;2023-03-04T09:21:38;101322.50;;;2.64;nan
55685;BME280;41883;49.544;8.646;2023-03-04T09:24:04;101324.63;;;2.73;nan
55685;BME280;41883;49.544;8.646;2023-03-04T09:26:29;101320.69;;;2.82;nan
55685;BME280;41883;49.544;8.646;2023-03-04T09:28:55;101330.88;;;2.87;nan
55685;BME280;41883;49.544;8.646;2023-03-04T09:31:21;101318.47;;;2.90;nan
55685;BME280;41883;49.544;8.646;2023-03-04T09:33:47;101312.88;;;2.98;nan
55685;BME280;41883;49.544;8.646;2023-03-04T09:36:12;101319.09;;;3.11;nan
55685;BME280;41883;49.544;8.646;2023-03-04T09:38:38;101319.34;;;3.23;nan
55685;BME280;41883;49.544;8.646;2023-03-04T09:41:08;101313.63;;;3.32;nan
55685;BME280;41883;49.544;8.646;2023-03-04T09:43:34;101318.47;;;3.38;nan
55685;BME280;41883;49.544;8.646;2023-03-04T09:46:01;101317.22;;;3.45;nan
55685;BME280;41883;49.544;8.646;2023-03-04T09:48:28;101318.66;;;3.51;nan
55685;BME280;41883;49.544;8.646;2023-03-04T09:53:24;101319.81;;;3.61;nan
55685;BME280;41883;49.544;8.646;2023-03-04T09:55:51;101321.06;;;3.70;nan
55685;BME280;41883;49.544;8.646;2023-03-04T10:03:46;101321.94;;;3.85;nan
55685;BME280;41883;49.544;8.646;2023-03-04T10:06:18;101322.44;;;3.91;nan
55685;BME280;41883;49.544;8.646;2023-03-04T10:11:30;101326.38;;;3.98;nan
55685;BME280;41883;49.544;8.646;2023-03-04T10:14:02;101327.53;;;4.09;nan
55685;BME280;41883;49.544;8.646;2023-03-04T10:16:31;101326.59;;;4.24;nan
55685;BME280;41883;49.544;8.646;2023-03-04T10:19:01;101321.66;;;4.34;nan
55685;BME280;41883;49.544;8.646;2023-03-04T10:21:35;101329.16;;;4.40;nan
55685;BME280;41883;49.544;8.646;2023-03-04T10:24:13;101318.06;;;4.51;nan
55685;BME280;41883;49.544;8.646;2023-03-04T10:26:38;101324.22;;;4.64;nan
55685;BME280;41883;49.544;8.646;2023-03-04T10:29:07;101321.78;;;4.61;nan
55685;BME280;41883;49.544;8.646;2023-03-04T10:31:34;101317.66;;;4.57;nan
55685;BME280;41883;49.544;8.646;2023-03-04T10:34:02;101313.72;;;4.50;nan
55685;BME280;41883;49.544;8.646;2023-03-04T10:38:54;101318.88;;;4.51;nan
55685;BME280;41883;49.544;8.646;2023-03-04T10:41:22;101321.78;;;4.46;nan
55685;BME280;41883;49.544;8.646;2023-03-04T10:43:49;101324.00;;;4.53;nan
55685;BME280;41883;49.544;8.646;2023-03-04T10:46:24;101318.50;;;4.57;nan
55685;BME280;41883;49.544;8.646;2023-03-04T10:48:50;101311.88;;;4.66;nan
55685;BME280;41883;49.544;8.646;2023-03-04T10:51:17;101314.69;;;4.63;nan
55685;BME280;41883;49.544;8.646;2023-03-04T10:53:43;101304.94;;;4.65;nan
55685;BME280;41883;49.544;8.646;2023-03-04T11:02:09;101298.84;;;4.64;nan
55685;BME280;41883;49.544;8.646;2023-03-04T11:07:30;101297.91;;;4.80;nan
55685;BME280;41883;49.544;8.646;2023-03-04T11:13:50;101299.69;;;4.94;nan
55685;BME280;41883;49.544;8.646;2023-03-04T11:16:20;101294.50;;;5.06;nan
55685;BME280;41883;49.544;8.646;2023-03-04T11:19:07;101285.56;;;5.23;nan
55685;BME280;41883;49.544;8.646;2023-03-04T11:21:46;101275.91;;;5.24;nan
55685;BME280;41883;49.544;8.646;2023-03-04T11:24:15;101275.44;;;5.31;nan
55685;BME280;41883;49.544;8.646;2023-03-04T11:27:17;101275.09;;;5.36;nan
55685;BME280;41883;49.544;8.646;2023-03-04T11:29:50;101268.63;;;5.42;nan
55685;BME280;41883;49.544;8.646;2023-03-04T11:32:35;101272.75;;;5.46;nan
55685;BME280;41883;49.544;8.646;2023-03-04T11:35:27;101265.41;;;5.51;nan
55685;BME280;41883;49.544;8.646;2023-03-04T11:38:01;101265.94;;;5.56;nan
55685;BME280;41883;49.544;8.646;2023-03-04T11:43:06;101262.34;;;5.44;nan
55685;BME280;41883;49.544;8.646;2023-03-04T11:50:51;101264.06;;;5.58;nan
55685;BME280;41883;49.544;8.646;2023-03-04T11:59:52;101249.59;;;5.91;nan
55685;BME280;41883;49.544;8.646;2023-03-04T12:13:59;101239.56;;;6.49;nan
55685;BME280;41883;49.544;8.646;2023-03-04T12:27:52;101223.91;;;6.34;nan
55685;BME280;41883;49.544;8.646;2023-03-04T12:48:22;101207.03;;;6.13;nan
55685;BME280;41883;49.544;8.646;2023-03-04T12:53:20;101203.03;;;5.94;nan
55685;BME280;41883;49.544;8.646;2023-03-04T12:55:49;101200.03;;;5.86;nan
55685;BME280;41883;49.544;8.646;2023-03-04T12:58:20;101200.03;;;5.86;nan
55685;BME280;41883;49.544;8.646;2023-03-04T13:01:02;101189.03;;;5.81;nan
55685;BME280;41883;49.544;8.646;2023-03-04T13:08:37;101189.66;;;5.72;nan
55685;BME280;41883;49.544;8.646;2023-03-04T13:16:40;101181.03;;;5.44;nan
55685;BME280;41883;49.544;8.646;2023-03-04T13:21:50;101179.78;;;5.50;nan
55685;BME280;41883;49.544;8.646;2023-03-04T13:27:42;101179.38;;;5.56;nan
55685;BME280;41883;49.544;8.646;2023-03-04T13:29:47;101177.06;;;5.51;nan
55685;BME280;41883;49.544;8.646;2023-03-04T13:32:12;101167.72;;;5.47;nan
55685;BME280;41883;49.544;8.646;2023-03-04T13:38:00;101165.59;;;5.40;nan
55685;BME280;41883;49.544;8.646;2023-03-04T13:40:33;101167.69;;;5.35;nan
55685;BME280;41883;49.544;8.646;2023-03-04T13:46:42;101165.81;;;5.37;nan
55685;BME280;41883;49.544;8.646;2023-03-04T13:51:23;101154.38;;;5.38;nan
55685;BME280;41883;49.544;8.646;2023-03-04T13:53:53;101158.03;;;5.35;nan
55685;BME280;41883;49.544;8.646;2023-03-04T13:56:20;101149.88;;;5.40;nan
55685;BME280;41883;49.544;8.646;2023-03-04T13:58:46;101139.59;;;5.37;nan
55685;BME280;41883;49.544;8.646;2023-03-04T14:01:26;101142.22;;;5.37;nan
55685;BME280;41883;49.544;8.646;2023-03-04T14:03:52;101137.38;;;5.43;nan
55685;BME280;41883;49.544;8.646;2023-03-04T14:06:19;101135.69;;;5.42;nan
55685;BME280;41883;49.544;8.646;2023-03-04T14:08:45;101132.47;;;5.39;nan
55685;BME280;41883;49.544;8.646;2023-03-04T14:11:21;101143.03;;;5.37;nan
55685;BME280;41883;49.544;8.646;2023-03-04T14:13:48;101136.84;;;5.38;nan
55685;BME280;41883;49.544;8.646;2023-03-04T14:16:18;101134.13;;;5.40;nan
55685;BME280;41883;49.544;8.646;2023-03-04T14:18:43;101134.66;;;5.45;nan
55685;BME280;41883;49.544;8.646;2023-03-04T14:21:14;101135.59;;;5.44;nan
55685;BME280;41883;49.544;8.646;2023-03-04T14:23:40;101131.72;;;5.49;nan
55685;BME280;41883;49.544;8.646;2023-03-04T14:26:13;101128.78;;;5.54;nan
55685;BME280;41883;49.544;8.646;2023-03-04T14:28:43;101128.88;;;5.52;nan
55685;BME280;41883;49.544;8.646;2023-03-04T14:31:14;101125.34;;;5.53;nan
55685;BME280;41883;49.544;8.646;2023-03-04T14:33:42;101125.03;;;5.58;nan
55685;BME280;41883;49.544;8.646;2023-03-04T14:36:12;101116.72;;;5.64;nan
55685;BME280;41883;49.544;8.646;2023-03-04T14:38:39;101119.66;;;5.72;nan
55685;BME280;41883;49.544;8.646;2023-03-04T14:41:14;101119.44;;;5.75;nan
55685;BME280;41883;49.544;8.646;2023-03-04T14:44:02;101113.38;;;5.75;nan
55685;BME280;41883;49.544;8.646;2023-03-04T14:46:40;101110.09;;;5.71;nan
55685;BME280;41883;49.544;8.646;2023-03-04T14:49:11;101111.28;;;5.67;nan
55685;BME280;41883;49.544;8.646;2023-03-04T14:51:48;101109.03;;;5.74;nan
55685;BME280;41883;49.544;8.646;2023-03-04T14:54:27;101104.84;;;5.71;nan
55685;BME280;41883;49.544;8.646;2023-03-04T14:56:52;101101.28;;;5.72;nan
55685;BME280;41883;49.544;8.646;2023-03-04T14:59:26;101091.53;;;5.74;nan
55685;BME280;41883;49.544;8.646;2023-03-04T15:01:51;101078.72;;;5.83;nan
55685;BME280;41883;49.544;8.646;2023-03-04T15:04:17;101075.25;;;5.82;nan